This is the latest recevied weather packets stored in our database for station/object DL4LAM-15. If no packets are shown the sender has not sent any weather packets the latest 10 day(s).
| Time | Temp. | Humidity | Pressure | Rain* | Wind** | Luminosity | Snow |
|---|---|---|---|---|---|---|---|
| 1777446316 | 11.11° C | 51% | 1028.4 hPa | 0 mm | - | - | - |
| 1777440916 | 8.33° C | 62% | 1027.7 hPa | 0 mm | - | - | - |
| 1777437316 | 5° C | 75% | 1026.9 hPa | 0 mm | - | - | - |
| 1777436416 | 5° C | 75% | 1026.9 hPa | 0 mm | - | - | - |
| 1777433116 | 5° C | 76% | 1026.9 hPa | 0 mm | - | - | - |
| 1777429218 | 6.11° C | 70% | 1026.9 hPa | 0 mm | - | - | - |
| 1777426519 | 7.22° C | 66% | 1026.7 hPa | 0 mm | - | - | - |
| 1777415718 | 10° C | 54% | 1026.1 hPa | 0 mm | - | - | - |
| 1777415438 | 10° C | 54% | 1026 hPa | 0 mm | - | - | - |
| 1777414218 | 10° C | 53% | 1026 hPa | 0 mm | - | - | - |
| 1777412117 | 10.56° C | 50% | 1025.8 hPa | 0 mm | - | - | - |
| 1777409717 | 11.67° C | 50% | 1025.6 hPa | 0 mm | - | - | - |
| 1777409417 | 11.67° C | 50% | 1025.5 hPa | 0 mm | - | - | - |
| 1777409117 | 11.67° C | 49% | 1025.4 hPa | 0 mm | - | - | - |
| 1777401016 | 14.44° C | 39% | 1024.2 hPa | 0 mm | - | - | - |
| 1777394116 | 16.11° C | 34% | 1023.5 hPa | 0 mm | - | - | - |
| 1777393817 | 16.11° C | 34% | 1023.6 hPa | 0 mm | - | - | - |
| 1777390517 | 16.67° C | 31% | 1023.7 hPa | 0 mm | - | - | - |
| 1777390216 | 16.67° C | 31% | 1023.6 hPa | 0 mm | - | - | - |
| 1777389016 | 16.67° C | 31% | 1023.6 hPa | 0 mm | - | - | - |
| 1777387817 | 16.67° C | 32% | 1023.6 hPa | 0 mm | - | - | - |
| 1777387516 | 16.67° C | 31% | 1023.7 hPa | 0 mm | - | - | - |
| 1777387216 | 16.67° C | 31% | 1023.7 hPa | 0 mm | - | - | - |
| 1777385716 | 17.22° C | 29% | 1023.9 hPa | 0 mm | - | - | - |
| 1777383616 | 17.78° C | 29% | 1024.1 hPa | 0 mm | - | - | - |
* Rain latest hour (hover to see other rain measurements)
** Current wind speed in m/s (hover to see current wind gust speed)